createdAt,value
2022-09-24T00:01:34.058Z,100.00
2022-09-24T00:04:06.388Z,100.00
2022-09-24T00:06:58.947Z,100.00
2022-09-24T00:09:25.299Z,100.00
2022-09-24T00:11:53.288Z,100.00
2022-09-24T00:14:20.118Z,100.00
2022-09-24T00:16:46.525Z,100.00
2022-09-24T00:19:14.032Z,100.00
2022-09-24T00:21:41.698Z,100.00
2022-09-24T00:24:36.935Z,100.00
2022-09-24T00:27:05.112Z,100.00
2022-09-24T00:29:36.168Z,100.00
2022-09-24T00:32:04.257Z,100.00
2022-09-24T00:34:31.108Z,100.00
2022-09-24T00:36:57.570Z,100.00
2022-09-24T00:39:23.921Z,100.00
2022-09-24T00:41:50.254Z,100.00
2022-09-24T00:44:35.417Z,100.00
2022-09-24T00:47:01.858Z,100.00
2022-09-24T00:49:28.359Z,100.00
2022-09-24T00:51:54.705Z,100.00
2022-09-24T00:54:24.882Z,100.00
2022-09-24T00:56:53.127Z,100.00
2022-09-24T00:59:23.825Z,100.00
2022-09-24T01:01:52.718Z,100.00
2022-09-24T01:04:22.857Z,100.00
2022-09-24T01:06:50.606Z,100.00
2022-09-24T01:09:19.849Z,100.00
2022-09-24T01:12:06.652Z,100.00
2022-09-24T01:14:47.127Z,100.00
2022-09-24T01:17:20.658Z,100.00
2022-09-24T01:20:13.603Z,100.00
2022-09-24T01:22:39.856Z,100.00
2022-09-24T01:25:19.271Z,100.00
2022-09-24T01:28:21.709Z,100.00
2022-09-24T01:30:54.808Z,100.00
2022-09-24T01:33:25.658Z,100.00
2022-09-24T01:35:56.395Z,100.00
2022-09-24T01:38:34.682Z,100.00
2022-09-24T01:41:03.772Z,100.00
2022-09-24T01:43:32.409Z,100.00
2022-09-24T01:46:02.214Z,100.00
2022-09-24T01:48:30.244Z,100.00
2022-09-24T01:51:14.433Z,100.00
2022-09-24T01:53:53.823Z,100.00
2022-09-24T01:57:12.875Z,100.00
2022-09-24T01:59:55.779Z,100.00
2022-09-24T02:02:35.256Z,100.00
2022-09-24T02:05:07.814Z,100.00
2022-09-24T02:08:02.860Z,100.00
2022-09-24T02:10:32.469Z,100.00
2022-09-24T02:13:05.348Z,100.00
2022-09-24T02:15:34.767Z,100.00
2022-09-24T02:18:06.881Z,100.00
2022-09-24T02:20:35.502Z,100.00
2022-09-24T02:23:04.541Z,100.00
2022-09-24T02:25:39.032Z,100.00
2022-09-24T02:28:05.537Z,100.00
2022-09-24T02:30:40.986Z,100.00
2022-09-24T02:33:30.804Z,100.00
2022-09-24T02:35:57.553Z,100.00
2022-09-24T02:38:24.035Z,100.00
2022-09-24T02:40:51.274Z,100.00
2022-09-24T02:43:17.737Z,100.00
2022-09-24T02:45:44.068Z,100.00
2022-09-24T02:48:11.026Z,100.00
2022-09-24T02:50:37.488Z,100.00
2022-09-24T02:53:03.917Z,100.00
2022-09-24T02:55:31.026Z,100.00
2022-09-24T02:57:57.518Z,100.00
2022-09-24T03:00:23.874Z,100.00
2022-09-24T03:02:51.153Z,100.00
2022-09-24T03:05:18.188Z,100.00
2022-09-24T03:07:45.185Z,100.00
2022-09-24T03:10:11.761Z,100.00
2022-09-24T03:12:38.172Z,100.00
2022-09-24T03:15:05.325Z,100.00
2022-09-24T03:17:31.699Z,100.00
2022-09-24T03:19:58.042Z,100.00
2022-09-24T03:22:24.394Z,100.00
2022-09-24T03:24:51.069Z,100.00
2022-09-24T03:27:17.402Z,100.00
2022-09-24T03:30:02.373Z,100.00
2022-09-24T03:32:29.895Z,100.00
2022-09-24T03:34:56.261Z,100.00
2022-09-24T03:37:22.587Z,100.00
2022-09-24T03:39:48.940Z,100.00
2022-09-24T03:42:15.452Z,100.00
2022-09-24T03:44:41.797Z,100.00
2022-09-24T03:47:08.166Z,100.00
2022-09-24T03:49:34.544Z,100.00
2022-09-24T03:52:00.936Z,100.00
2022-09-24T03:54:27.318Z,100.00
2022-09-24T03:56:53.672Z,100.00
2022-09-24T03:59:20.032Z,100.00
2022-09-24T04:01:46.398Z,100.00
2022-09-24T04:04:15.534Z,100.00
2022-09-24T04:06:41.874Z,100.00
2022-09-24T04:09:08.362Z,100.00
2022-09-24T04:11:35.240Z,100.00
2022-09-24T04:14:02.069Z,100.00
2022-09-24T04:16:28.718Z,100.00
2022-09-24T04:18:55.549Z,100.00
2022-09-24T04:21:21.962Z,100.00
2022-09-24T04:23:48.342Z,100.00
2022-09-24T04:26:15.130Z,100.00
2022-09-24T04:28:41.550Z,100.00
2022-09-24T04:31:08.051Z,100.00
2022-09-24T04:33:34.513Z,100.00
2022-09-24T04:36:01.044Z,100.00
2022-09-24T04:38:27.396Z,100.00
2022-09-24T04:40:53.820Z,100.00
2022-09-24T04:43:20.307Z,100.00
2022-09-24T04:45:46.959Z,100.00
2022-09-24T04:48:13.609Z,100.00
2022-09-24T04:50:45.493Z,100.00
2022-09-24T04:53:12.799Z,100.00
2022-09-24T04:55:39.639Z,100.00
2022-09-24T04:58:06.022Z,100.00
2022-09-24T05:00:33.337Z,100.00
2022-09-24T05:03:03.639Z,100.00
2022-09-24T05:05:32.186Z,100.00
2022-09-24T05:07:58.793Z,100.00
2022-09-24T05:10:26.406Z,100.00
2022-09-24T05:12:52.865Z,100.00
2022-09-24T05:15:19.932Z,100.00
2022-09-24T05:17:47.597Z,100.00
2022-09-24T05:20:16.773Z,100.00
2022-09-24T05:22:44.913Z,100.00
2022-09-24T05:25:13.198Z,100.00
2022-09-24T05:27:51.555Z,100.00
2022-09-24T05:30:19.346Z,100.00
2022-09-24T05:32:47.171Z,100.00
2022-09-24T05:35:13.730Z,100.00
2022-09-24T05:37:40.492Z,100.00
2022-09-24T05:40:26.579Z,100.00
2022-09-24T05:42:59.716Z,100.00
2022-09-24T05:45:26.063Z,100.00
2022-09-24T05:47:52.745Z,100.00
2022-09-24T05:50:19.200Z,100.00
2022-09-24T05:52:45.578Z,100.00
2022-09-24T05:55:12.004Z,100.00
2022-09-24T05:57:38.576Z,100.00
2022-09-24T06:00:06.926Z,100.00
2022-09-24T06:02:33.535Z,100.00
2022-09-24T06:04:59.880Z,100.00
2022-09-24T06:07:26.238Z,100.00
2022-09-24T06:09:52.694Z,100.00
2022-09-24T06:12:19.579Z,100.00
2022-09-24T06:14:45.916Z,100.00
2022-09-24T06:17:12.505Z,100.00
2022-09-24T06:19:39.298Z,100.00
2022-09-24T06:22:05.659Z,100.00
2022-09-24T06:24:31.976Z,100.00
2022-09-24T06:26:58.694Z,100.00
2022-09-24T06:29:25.130Z,100.00
2022-09-24T06:31:53.797Z,100.00
2022-09-24T06:34:20.239Z,100.00
2022-09-24T06:36:46.686Z,100.00
2022-09-24T06:39:13.040Z,100.00
2022-09-24T06:41:39.453Z,100.00
2022-09-24T06:44:05.798Z,100.00
2022-09-24T06:46:32.227Z,100.00
2022-09-24T06:48:58.639Z,100.00
2022-09-24T06:51:25.019Z,100.00
2022-09-24T06:53:52.650Z,100.00
2022-09-24T06:56:19.314Z,100.00
2022-09-24T06:58:46.515Z,100.00
2022-09-24T07:01:13.039Z,100.00
2022-09-24T07:03:40.185Z,100.00
2022-09-24T07:06:07.085Z,100.00
2022-09-24T07:08:33.671Z,100.00
2022-09-24T07:11:00.792Z,100.00
2022-09-24T07:13:27.262Z,100.00
2022-09-24T07:15:53.728Z,100.00
2022-09-24T07:18:20.524Z,100.00
2022-09-24T07:20:54.259Z,100.00
2022-09-24T07:23:21.633Z,100.00
2022-09-24T07:25:48.918Z,100.00
2022-09-24T07:28:19.587Z,100.00
2022-09-24T07:30:45.965Z,100.00
2022-09-24T07:33:12.330Z,100.00
2022-09-24T07:35:39.302Z,100.00
2022-09-24T07:38:14.215Z,100.00
2022-09-24T07:40:40.993Z,100.00
2022-09-24T07:43:12.280Z,100.00
2022-09-24T07:45:39.081Z,100.00
2022-09-24T07:48:05.827Z,100.00
2022-09-24T07:50:35.279Z,100.00
2022-09-24T07:53:01.677Z,100.00
2022-09-24T07:55:28.050Z,100.00
2022-09-24T07:57:55.661Z,100.00
2022-09-24T08:00:24.258Z,100.00
2022-09-24T08:02:52.068Z,100.00
2022-09-24T08:05:18.517Z,100.00
2022-09-24T08:07:55.844Z,100.00
2022-09-24T08:10:23.223Z,100.00
2022-09-24T08:12:49.989Z,100.00
2022-09-24T08:15:16.639Z,100.00
2022-09-24T08:17:43.032Z,100.00
2022-09-24T08:20:11.501Z,100.00
2022-09-24T08:22:38.165Z,100.00
2022-09-24T08:25:06.081Z,100.00
2022-09-24T08:27:33.004Z,100.00
2022-09-24T08:30:00.632Z,100.00
2022-09-24T08:32:29.308Z,100.00
2022-09-24T08:34:55.683Z,100.00
2022-09-24T08:37:22.298Z,100.00
2022-09-24T08:39:48.657Z,100.00
2022-09-24T08:42:36.576Z,100.00
2022-09-24T08:45:23.681Z,100.00
2022-09-24T08:48:04.149Z,100.00
2022-09-24T08:50:34.928Z,100.00
2022-09-24T08:53:31.567Z,100.00
2022-09-24T08:56:01.518Z,100.00
2022-09-24T08:58:46.487Z,100.00
2022-09-24T09:01:17.758Z,100.00
2022-09-24T09:04:11.965Z,100.00
2022-09-24T09:07:04.713Z,100.00
2022-09-24T09:09:41.353Z,100.00
2022-09-24T09:12:15.285Z,100.00
2022-09-24T09:14:49.999Z,100.00
2022-09-24T09:17:42.786Z,100.00
2022-09-24T09:20:52.541Z,100.00
2022-09-24T09:23:22.038Z,100.00
2022-09-24T09:25:58.046Z,100.00
2022-09-24T09:28:26.669Z,100.00
2022-09-24T09:31:19.143Z,100.00
2022-09-24T09:33:48.440Z,100.00
2022-09-24T09:36:33.830Z,100.00
2022-09-24T09:39:18.398Z,100.00
2022-09-24T09:41:55.356Z,100.00
2022-09-24T09:44:30.634Z,100.00
2022-09-24T09:47:12.926Z,100.00
2022-09-24T09:49:40.295Z,100.00
2022-09-24T09:52:20.950Z,100.00
2022-09-24T09:54:48.565Z,100.00
2022-09-24T09:57:20.669Z,100.00
2022-09-24T09:59:52.481Z,100.00
2022-09-24T10:02:31.472Z,100.00
2022-09-24T10:05:01.233Z,99.19
2022-09-24T10:07:28.401Z,99.77
2022-09-24T10:10:18.429Z,100.00
2022-09-24T10:12:44.825Z,100.00
2022-09-24T10:15:14.147Z,100.00
2022-09-24T10:17:41.635Z,100.00
2022-09-24T10:20:17.035Z,97.82
2022-09-24T10:23:00.088Z,96.53
2022-09-24T10:25:29.834Z,94.66
2022-09-24T10:28:20.029Z,94.13
2022-09-24T10:31:03.318Z,89.65
2022-09-24T10:33:57.345Z,88.20
2022-09-24T10:36:26.631Z,88.49
2022-09-24T10:39:08.228Z,88.16
2022-09-24T10:41:35.903Z,93.42
2022-09-24T10:44:11.523Z,89.93
2022-09-24T10:46:58.727Z,87.28
2022-09-24T10:50:02.127Z,79.59
2022-09-24T10:52:52.012Z,77.29
2022-09-24T10:55:41.474Z,75.85
2022-09-24T10:58:53.154Z,84.40
2022-09-24T11:01:53.738Z,82.47
2022-09-24T11:04:39.786Z,88.20
2022-09-24T11:07:18.186Z,88.59
2022-09-24T11:09:56.660Z,90.36
2022-09-24T11:12:47.554Z,96.24
2022-09-24T11:15:32.396Z,96.21
2022-09-24T11:18:26.555Z,96.24
2022-09-24T11:21:26.099Z,92.75
2022-09-24T11:24:03.630Z,95.20
2022-09-24T11:26:57.547Z,95.89
2022-09-24T11:29:34.725Z,99.29
2022-09-24T11:32:24.704Z,97.72
2022-09-24T11:35:06.286Z,91.82
2022-09-24T11:37:50.511Z,98.56
2022-09-24T11:40:36.505Z,93.82
2022-09-24T11:43:15.647Z,96.39
2022-09-24T11:45:51.311Z,92.76
2022-09-24T11:48:40.410Z,90.79
2022-09-24T11:51:26.334Z,86.46
2022-09-24T11:54:24.911Z,83.52
2022-09-24T11:57:01.904Z,82.71
2022-09-24T11:59:42.945Z,81.62
2022-09-24T12:02:47.005Z,84.60
2022-09-24T12:05:37.777Z,87.60
2022-09-24T12:08:13.689Z,89.05
2022-09-24T12:10:49.930Z,91.20
2022-09-24T12:13:41.144Z,93.76
2022-09-24T12:16:16.879Z,97.24
2022-09-24T12:18:58.759Z,94.65
2022-09-24T12:21:33.915Z,95.57
2022-09-24T12:24:08.461Z,97.51
2022-09-24T12:26:38.061Z,94.06
2022-09-24T12:29:58.482Z,90.17
2022-09-24T12:32:55.868Z,92.23
2022-09-24T12:35:26.759Z,91.62
2022-09-24T12:38:12.171Z,90.12
2022-09-24T12:41:09.534Z,92.21
2022-09-24T12:43:59.891Z,92.45
2022-09-24T12:46:38.347Z,92.21
2022-09-24T12:49:10.953Z,94.52
2022-09-24T12:51:39.351Z,95.93
2022-09-24T12:54:15.676Z,93.82
2022-09-24T12:56:42.163Z,93.68
2022-09-24T12:59:24.800Z,93.11
2022-09-24T13:01:51.291Z,96.64
2022-09-24T13:04:17.826Z,92.59
2022-09-24T13:06:48.092Z,86.72
2022-09-24T13:09:38.170Z,79.46
2022-09-24T13:12:14.450Z,73.45
2022-09-24T13:14:49.388Z,73.67
2022-09-24T13:17:16.994Z,74.76
2022-09-24T13:19:47.059Z,79.04
2022-09-24T13:22:23.143Z,91.13
2022-09-24T13:24:52.411Z,92.20
2022-09-24T13:27:37.769Z,95.27
2022-09-24T13:30:26.246Z,92.42
2022-09-24T13:33:23.421Z,93.02
2022-09-24T13:36:02.624Z,95.40
2022-09-24T13:38:34.312Z,94.25
2022-09-24T13:41:12.600Z,96.99
2022-09-24T13:43:45.225Z,97.30
2022-09-24T13:46:16.849Z,98.18
2022-09-24T13:48:53.587Z,100.00
2022-09-24T13:51:26.441Z,99.41
2022-09-24T13:54:02.058Z,100.00
2022-09-24T13:56:28.763Z,100.00
2022-09-24T13:59:06.169Z,100.00
2022-09-24T14:01:39.169Z,100.00
2022-09-24T14:04:25.969Z,100.00
2022-09-24T14:06:58.210Z,100.00
2022-09-24T14:09:34.614Z,100.00
2022-09-24T14:12:15.883Z,100.00
2022-09-24T14:14:49.904Z,100.00
2022-09-24T14:17:16.292Z,100.00
2022-09-24T14:19:42.708Z,100.00
2022-09-24T14:22:23.431Z,100.00
2022-09-24T14:25:07.907Z,100.00
2022-09-24T14:27:41.919Z,100.00
2022-09-24T14:30:18.565Z,100.00
2022-09-24T14:32:45.149Z,100.00
2022-09-24T14:35:27.763Z,99.44
2022-09-24T14:38:02.006Z,100.00
2022-09-24T14:40:28.837Z,100.00
2022-09-24T14:42:59.862Z,100.00
2022-09-24T14:45:31.153Z,100.00
2022-09-24T14:48:05.240Z,100.00
2022-09-24T14:50:40.518Z,99.24
2022-09-24T14:53:27.056Z,99.39
2022-09-24T14:55:53.839Z,100.00
2022-09-24T14:58:29.184Z,100.00
2022-09-24T15:00:58.963Z,100.00
2022-09-24T15:03:48.156Z,100.00
2022-09-24T15:06:27.492Z,100.00
2022-09-24T15:09:15.791Z,100.00
2022-09-24T15:11:43.748Z,100.00
2022-09-24T15:14:24.992Z,100.00
2022-09-24T15:16:52.775Z,100.00
2022-09-24T15:19:21.250Z,100.00
2022-09-24T15:21:49.684Z,100.00
2022-09-24T15:24:17.441Z,100.00
2022-09-24T15:26:46.867Z,100.00
2022-09-24T15:29:20.969Z,100.00
2022-09-24T15:31:47.528Z,100.00
2022-09-24T15:34:17.814Z,100.00
2022-09-24T15:36:47.910Z,100.00
2022-09-24T15:39:16.055Z,100.00
2022-09-24T15:41:42.407Z,100.00
2022-09-24T15:44:23.016Z,100.00
2022-09-24T15:46:53.641Z,100.00
2022-09-24T15:49:22.199Z,100.00
2022-09-24T15:52:05.751Z,100.00
2022-09-24T15:54:32.350Z,100.00
2022-09-24T15:57:00.650Z,100.00
2022-09-24T15:59:27.982Z,100.00
2022-09-24T16:01:57.780Z,100.00
2022-09-24T16:04:24.185Z,100.00
2022-09-24T16:06:50.965Z,100.00
2022-09-24T16:09:17.324Z,100.00
2022-09-24T16:11:44.021Z,100.00
2022-09-24T16:14:10.992Z,100.00
2022-09-24T16:16:40.436Z,100.00
2022-09-24T16:19:09.628Z,100.00
2022-09-24T16:21:36.187Z,100.00
2022-09-24T16:24:03.206Z,100.00
2022-09-24T16:26:29.735Z,100.00
2022-09-24T16:28:56.775Z,100.00
2022-09-24T16:31:23.796Z,100.00
2022-09-24T16:33:50.268Z,100.00
2022-09-24T16:36:16.827Z,100.00
2022-09-24T16:38:43.287Z,100.00
2022-09-24T16:41:10.763Z,100.00
2022-09-24T16:43:37.492Z,100.00
2022-09-24T16:46:06.701Z,100.00
2022-09-24T16:48:33.605Z,100.00
2022-09-24T16:51:07.594Z,100.00
2022-09-24T16:53:34.804Z,100.00
2022-09-24T16:56:15.093Z,100.00
2022-09-24T16:58:42.660Z,100.00
2022-09-24T17:01:11.521Z,100.00
2022-09-24T17:03:38.562Z,100.00
2022-09-24T17:06:05.593Z,100.00
2022-09-24T17:09:12.530Z,100.00
2022-09-24T17:11:42.449Z,100.00
2022-09-24T17:14:12.183Z,100.00
2022-09-24T17:16:39.712Z,100.00
2022-09-24T17:19:07.888Z,100.00
2022-09-24T17:21:35.959Z,100.00
2022-09-24T17:24:02.667Z,100.00
2022-09-24T17:26:29.030Z,100.00
2022-09-24T17:28:55.429Z,100.00
2022-09-24T17:31:24.201Z,100.00
2022-09-24T17:33:57.953Z,100.00
2022-09-24T17:36:26.265Z,100.00
2022-09-24T17:38:52.834Z,100.00
2022-09-24T17:41:19.564Z,100.00
2022-09-24T17:43:45.966Z,100.00
2022-09-24T17:46:15.238Z,100.00
2022-09-24T17:48:45.662Z,100.00
2022-09-24T17:51:15.460Z,100.00
2022-09-24T17:53:41.921Z,100.00
2022-09-24T17:56:11.408Z,100.00
2022-09-24T17:58:39.600Z,100.00
2022-09-24T18:01:11.981Z,100.00
2022-09-24T18:03:39.392Z,100.00
2022-09-24T18:06:08.397Z,100.00
2022-09-24T18:08:39.107Z,100.00
2022-09-24T18:11:14.953Z,100.00
2022-09-24T18:13:41.697Z,100.00
2022-09-24T18:16:10.994Z,100.00
2022-09-24T18:18:37.748Z,100.00
2022-09-24T18:21:06.793Z,100.00
2022-09-24T18:23:35.056Z,100.00
2022-09-24T18:26:10.829Z,100.00
2022-09-24T18:28:41.523Z,100.00
2022-09-24T18:31:10.186Z,100.00
2022-09-24T18:33:38.922Z,100.00
2022-09-24T18:36:08.329Z,100.00
2022-09-24T18:38:35.475Z,100.00
2022-09-24T18:41:08.421Z,100.00
2022-09-24T18:43:35.250Z,100.00
2022-09-24T18:46:10.780Z,100.00
2022-09-24T18:48:38.194Z,100.00
2022-09-24T18:51:05.404Z,100.00
2022-09-24T18:53:32.178Z,100.00
2022-09-24T18:56:03.202Z,100.00
2022-09-24T18:58:29.560Z,100.00
2022-09-24T19:01:03.701Z,100.00
2022-09-24T19:03:30.879Z,100.00
2022-09-24T19:06:02.740Z,100.00
2022-09-24T19:08:32.084Z,100.00
2022-09-24T19:11:09.248Z,100.00
2022-09-24T19:13:39.954Z,100.00
2022-09-24T19:16:10.854Z,100.00
2022-09-24T19:18:38.272Z,100.00
2022-09-24T19:21:06.546Z,100.00
2022-09-24T19:23:40.674Z,100.00
2022-09-24T19:26:08.462Z,100.00
2022-09-24T19:28:36.014Z,100.00
2022-09-24T19:31:03.859Z,100.00
2022-09-24T19:33:31.279Z,100.00
2022-09-24T19:36:01.691Z,100.00
2022-09-24T19:38:30.413Z,100.00
2022-09-24T19:41:01.754Z,100.00
2022-09-24T19:43:29.763Z,100.00
2022-09-24T19:46:00.803Z,100.00
2022-09-24T19:48:29.077Z,100.00
2022-09-24T19:51:00.890Z,100.00
2022-09-24T19:53:27.868Z,100.00
2022-09-24T19:55:54.269Z,100.00
2022-09-24T19:58:20.634Z,100.00
2022-09-24T20:00:47.059Z,100.00
2022-09-24T20:03:13.658Z,100.00
2022-09-24T20:05:43.201Z,100.00
2022-09-24T20:08:14.689Z,100.00
2022-09-24T20:10:41.842Z,100.00
2022-09-24T20:13:10.616Z,100.00
2022-09-24T20:15:38.272Z,100.00
2022-09-24T20:18:06.529Z,100.00
2022-09-24T20:20:33.236Z,100.00
2022-09-24T20:22:59.934Z,100.00
2022-09-24T20:25:45.070Z,100.00
2022-09-24T20:28:15.359Z,100.00
2022-09-24T20:30:44.892Z,100.00
2022-09-24T20:33:12.849Z,100.00
2022-09-24T20:35:41.034Z,100.00
2022-09-24T20:38:08.309Z,100.00
2022-09-24T20:40:36.480Z,100.00
2022-09-24T20:43:03.792Z,100.00
2022-09-24T20:45:31.417Z,100.00
2022-09-24T20:47:57.834Z,100.00
2022-09-24T20:50:24.207Z,100.00
2022-09-24T20:52:51.112Z,100.00
2022-09-24T20:55:17.471Z,100.00
2022-09-24T20:57:43.824Z,100.00
2022-09-24T21:00:13.327Z,100.00
2022-09-24T21:02:41.567Z,100.00
2022-09-24T21:05:10.370Z,100.00
2022-09-24T21:07:42.570Z,100.00
2022-09-24T21:10:11.554Z,100.00
2022-09-24T21:12:39.371Z,100.00
2022-09-24T21:15:07.606Z,100.00
2022-09-24T21:17:34.488Z,100.00
2022-09-24T21:20:01.232Z,100.00
2022-09-24T21:22:27.992Z,100.00
2022-09-24T21:24:54.490Z,100.00
2022-09-24T21:27:20.880Z,100.00
2022-09-24T21:29:48.212Z,100.00
2022-09-24T21:32:16.662Z,100.00
2022-09-24T21:34:44.027Z,100.00
2022-09-24T21:37:14.858Z,100.00
2022-09-24T21:39:43.045Z,100.00
2022-09-24T21:42:09.734Z,100.00
2022-09-24T21:44:36.264Z,100.00
2022-09-24T21:47:03.321Z,100.00
2022-09-24T21:49:30.664Z,100.00
2022-09-24T21:51:57.627Z,100.00
2022-09-24T21:54:24.050Z,100.00
2022-09-24T21:56:54.222Z,100.00
2022-09-24T21:59:39.004Z,100.00
2022-09-24T22:02:05.435Z,100.00
2022-09-24T22:04:33.263Z,100.00
2022-09-24T22:07:00.230Z,100.00
2022-09-24T22:09:26.837Z,100.00
2022-09-24T22:11:55.862Z,100.00
2022-09-24T22:14:23.154Z,100.00
2022-09-24T22:16:49.728Z,100.00
2022-09-24T22:19:16.337Z,100.00
2022-09-24T22:21:42.987Z,100.00
2022-09-24T22:24:09.935Z,100.00
2022-09-24T22:26:36.579Z,100.00
2022-09-24T22:29:06.329Z,100.00
2022-09-24T22:31:33.236Z,100.00
2022-09-24T22:34:18.821Z,100.00
2022-09-24T22:36:45.189Z,100.00
2022-09-24T22:39:11.542Z,100.00
2022-09-24T22:41:39.950Z,100.00
2022-09-24T22:44:07.184Z,100.00
2022-09-24T22:46:36.078Z,100.00
2022-09-24T22:49:04.288Z,100.00
2022-09-24T22:51:31.330Z,100.00
2022-09-24T22:53:59.674Z,100.00
2022-09-24T22:56:27.182Z,100.00
2022-09-24T22:59:03.073Z,100.00
2022-09-24T23:01:33.385Z,100.00
2022-09-24T23:04:01.457Z,100.00
2022-09-24T23:06:28.183Z,100.00
2022-09-24T23:08:55.401Z,100.00
2022-09-24T23:11:31.554Z,100.00
2022-09-24T23:14:04.587Z,100.00
2022-09-24T23:16:34.344Z,100.00
2022-09-24T23:19:02.596Z,100.00
2022-09-24T23:21:31.413Z,100.00
2022-09-24T23:24:05.050Z,100.00
2022-09-24T23:26:31.514Z,100.00
2022-09-24T23:28:59.374Z,100.00
2022-09-24T23:31:29.501Z,100.00
2022-09-24T23:33:57.440Z,100.00
2022-09-24T23:36:25.372Z,100.00
2022-09-24T23:38:52.913Z,100.00
2022-09-24T23:41:19.812Z,100.00
2022-09-24T23:43:46.196Z,100.00
2022-09-24T23:46:13.608Z,100.00
2022-09-24T23:48:40.269Z,100.00
2022-09-24T23:51:07.407Z,100.00
2022-09-24T23:53:34.381Z,100.00
2022-09-24T23:56:01.708Z,100.00
2022-09-24T23:58:28.332Z,100.00
